createdAt,value
2018-08-07T00:00:13.425Z,70.21
2018-08-07T00:01:13.413Z,70.60
2018-08-07T00:02:13.447Z,70.60
2018-08-07T00:03:13.388Z,70.02
2018-08-07T00:04:13.373Z,70.70
2018-08-07T00:05:13.360Z,70.50
2018-08-07T00:06:13.348Z,70.95
2018-08-07T00:07:13.347Z,70.56
2018-08-07T00:08:13.322Z,70.28
2018-08-07T00:09:13.316Z,70.56
2018-08-07T00:10:13.295Z,72.63
2018-08-07T00:11:13.281Z,72.81
2018-08-07T00:12:13.270Z,72.43
2018-08-07T00:13:13.255Z,72.24
2018-08-07T00:14:13.244Z,71.98
2018-08-07T00:15:13.232Z,71.31
2018-08-07T00:16:13.226Z,71.02
2018-08-07T00:17:13.207Z,67.42
2018-08-07T00:18:13.193Z,66.55
2018-08-07T00:19:13.180Z,67.42
2018-08-07T00:20:13.166Z,67.61
2018-08-07T00:21:13.151Z,67.90
2018-08-07T00:22:13.137Z,68.26
2018-08-07T00:23:13.124Z,69.12
2018-08-07T00:24:13.111Z,70.66
2018-08-07T00:25:13.100Z,70.56
2018-08-07T00:26:13.084Z,71.62
2018-08-07T00:27:13.073Z,71.62
2018-08-07T00:28:13.059Z,71.53
2018-08-07T00:29:13.051Z,71.14
2018-08-07T00:30:13.039Z,71.24
2018-08-07T00:31:13.026Z,71.24
2018-08-07T00:32:13.006Z,69.89
2018-08-07T00:33:12.992Z,69.51
2018-08-07T00:34:12.981Z,69.79
2018-08-07T00:35:12.974Z,69.70
2018-08-07T00:36:12.962Z,70.18
2018-08-07T00:37:12.942Z,71.53
2018-08-07T00:38:12.928Z,71.56
2018-08-07T00:39:12.913Z,70.70
2018-08-07T00:40:12.912Z,70.12
2018-08-07T00:41:12.886Z,71.66
2018-08-07T00:42:12.877Z,71.28
2018-08-07T00:43:12.859Z,70.89
2018-08-07T00:44:12.855Z,71.08
2018-08-07T00:45:12.836Z,70.98
2018-08-07T00:46:12.820Z,70.56
2018-08-07T00:47:12.813Z,71.14
2018-08-07T00:48:12.795Z,71.24
2018-08-07T00:49:12.786Z,70.56
2018-08-07T00:50:12.774Z,70.66
2018-08-07T00:51:12.753Z,70.95
2018-08-07T00:52:12.740Z,71.24
2018-08-07T00:53:12.725Z,70.76
2018-08-07T00:54:12.721Z,70.43
2018-08-07T00:55:12.702Z,71.59
2018-08-07T00:56:12.695Z,72.55
2018-08-07T00:57:12.673Z,72.36
2018-08-07T00:58:12.663Z,71.59
2018-08-07T00:59:12.646Z,71.88
2018-08-07T01:00:12.633Z,70.82
2018-08-07T01:01:12.622Z,70.28
2018-08-07T01:02:12.609Z,70.86
2018-08-07T01:03:12.592Z,71.43
2018-08-07T01:04:12.580Z,71.72
2018-08-07T01:05:12.568Z,72.01
2018-08-07T01:06:12.596Z,72.49
2018-08-07T01:07:12.545Z,72.24
2018-08-07T01:08:12.536Z,71.47
2018-08-07T01:09:12.518Z,70.98
2018-08-07T01:10:12.499Z,71.18
2018-08-07T01:11:12.488Z,70.60
2018-08-07T01:12:12.473Z,70.79
2018-08-07T01:13:12.461Z,70.60
2018-08-07T01:14:12.444Z,68.38
2018-08-07T01:15:12.431Z,68.26
2018-08-07T01:16:12.419Z,67.77
2018-08-07T01:17:12.404Z,68.70
2018-08-07T01:18:12.393Z,70.62
2018-08-07T01:19:12.378Z,72.52
2018-08-07T01:20:12.365Z,72.61
2018-08-07T01:21:12.354Z,73.09
2018-08-07T01:22:12.337Z,72.80
2018-08-07T01:23:12.326Z,73.09
2018-08-07T01:24:12.320Z,72.90
2018-08-07T01:25:12.298Z,72.74
2018-08-07T01:26:12.284Z,72.71
2018-08-07T01:27:12.277Z,72.74
2018-08-07T01:28:12.259Z,72.74
2018-08-07T01:29:12.245Z,72.84
2018-08-07T01:30:12.240Z,72.94
2018-08-07T01:31:12.222Z,73.32
2018-08-07T01:32:12.213Z,72.65
2018-08-07T01:33:12.190Z,72.17
2018-08-07T01:34:12.177Z,72.07
2018-08-07T01:35:12.165Z,72.45
2018-08-07T01:36:12.159Z,72.65
2018-08-07T01:37:12.147Z,72.52
2018-08-07T01:38:12.125Z,72.61
2018-08-07T01:39:12.109Z,73.38
2018-08-07T01:40:12.096Z,73.00
2018-08-07T01:41:12.082Z,73.96
2018-08-07T01:42:12.069Z,73.19
2018-08-07T01:43:12.101Z,73.57
2018-08-07T01:44:12.048Z,73.38
2018-08-07T01:45:12.037Z,74.05
2018-08-07T01:46:12.016Z,73.28
2018-08-07T01:47:12.001Z,73.67
2018-08-07T01:48:11.991Z,73.77
2018-08-07T01:49:11.974Z,73.86
2018-08-07T01:50:11.969Z,73.86
2018-08-07T01:51:11.951Z,74.34
2018-08-07T01:52:11.936Z,74.54
2018-08-07T01:53:11.920Z,75.11
2018-08-07T01:54:11.910Z,75.24
2018-08-07T01:55:11.892Z,74.96
2018-08-07T01:56:11.880Z,74.86
2018-08-07T01:57:11.864Z,74.76
2018-08-07T01:58:11.847Z,74.29
2018-08-07T01:59:11.835Z,72.65
2018-08-07T02:00:11.821Z,72.65
2018-08-07T02:01:11.806Z,72.80
2018-08-07T02:02:11.793Z,73.28
2018-08-07T02:03:11.780Z,74.57
2018-08-07T02:04:11.767Z,74.67
2018-08-07T02:05:11.752Z,74.86
2018-08-07T02:06:11.744Z,73.99
2018-08-07T02:07:11.726Z,73.99
2018-08-07T02:08:11.715Z,73.99
2018-08-07T02:09:11.697Z,73.36
2018-08-07T02:10:11.683Z,73.51
2018-08-07T02:11:11.675Z,72.74
2018-08-07T02:12:11.658Z,72.65
2018-08-07T02:13:11.656Z,72.07
2018-08-07T02:14:11.631Z,71.30
2018-08-07T02:15:11.616Z,71.49
2018-08-07T02:16:11.605Z,72.32
2018-08-07T02:17:11.588Z,72.03
2018-08-07T02:18:11.576Z,73.00
2018-08-07T02:19:11.561Z,74.34
2018-08-07T02:20:11.589Z,74.73
2018-08-07T02:21:11.539Z,74.73
2018-08-07T02:22:11.520Z,74.25
2018-08-07T02:23:11.510Z,74.05
2018-08-07T02:24:11.496Z,73.71
2018-08-07T02:25:11.480Z,73.61
2018-08-07T02:26:11.466Z,72.84
2018-08-07T02:27:11.452Z,73.03
2018-08-07T02:28:11.438Z,72.94
2018-08-07T02:29:11.433Z,72.94
2018-08-07T02:30:11.411Z,72.90
2018-08-07T02:31:11.399Z,72.90
2018-08-07T02:32:11.397Z,73.96
2018-08-07T02:33:11.369Z,73.80
2018-08-07T02:34:11.355Z,72.74
2018-08-07T02:35:11.342Z,72.74
2018-08-07T02:36:11.331Z,72.74
2018-08-07T02:37:11.312Z,71.40
2018-08-07T02:38:11.299Z,71.24
2018-08-07T02:39:11.288Z,70.76
2018-08-07T02:40:11.273Z,70.86
2018-08-07T02:41:11.259Z,70.37
2018-08-07T02:42:11.244Z,69.70
2018-08-07T02:43:11.231Z,68.44
2018-08-07T02:44:11.217Z,68.16
2018-08-07T02:45:11.206Z,69.02
2018-08-07T02:46:11.190Z,69.99
2018-08-07T02:47:11.176Z,69.79
2018-08-07T02:48:11.165Z,69.99
2018-08-07T02:49:11.147Z,69.79
2018-08-07T02:50:11.136Z,68.64
2018-08-07T02:51:11.122Z,66.91
2018-08-07T02:52:11.109Z,67.58
2018-08-07T02:53:11.096Z,67.65
2018-08-07T02:54:11.081Z,68.22
2018-08-07T02:55:11.071Z,68.96
2018-08-07T02:56:11.067Z,70.21
2018-08-07T02:57:11.043Z,70.59
2018-08-07T02:58:11.026Z,70.88
2018-08-07T02:59:11.011Z,70.78
2018-08-07T03:00:11.000Z,71.26
2018-08-07T03:01:10.987Z,70.21
2018-08-07T03:02:10.973Z,71.11
2018-08-07T03:03:10.961Z,70.62
2018-08-07T03:04:10.952Z,70.15
2018-08-07T03:05:10.935Z,68.22
2018-08-07T03:06:10.920Z,68.51
2018-08-07T03:07:10.902Z,69.57
2018-08-07T03:08:10.891Z,69.85
2018-08-07T03:09:10.878Z,69.57
2018-08-07T03:10:10.870Z,71.01
2018-08-07T03:11:10.848Z,69.95
2018-08-07T03:12:10.838Z,69.02
2018-08-07T03:13:10.825Z,68.93
2018-08-07T03:14:10.806Z,68.64
2018-08-07T03:15:10.794Z,68.26
2018-08-07T03:16:10.781Z,67.87
2018-08-07T03:17:10.774Z,68.06
2018-08-07T03:18:10.752Z,68.44
2018-08-07T03:19:10.736Z,68.84
2018-08-07T03:20:10.722Z,68.44
2018-08-07T03:21:10.709Z,68.93
2018-08-07T03:22:10.694Z,68.06
2018-08-07T03:23:10.685Z,67.77
2018-08-07T03:24:10.669Z,68.16
2018-08-07T03:25:10.653Z,67.39
2018-08-07T03:26:10.641Z,66.30
2018-08-07T03:27:10.625Z,65.72
2018-08-07T03:28:10.611Z,66.49
2018-08-07T03:29:10.609Z,67.26
2018-08-07T03:30:10.607Z,68.38
2018-08-07T03:31:10.569Z,68.86
2018-08-07T03:32:10.557Z,68.51
2018-08-07T03:33:10.544Z,69.53
2018-08-07T03:34:10.530Z,68.80
2018-08-07T03:35:10.518Z,69.09
2018-08-07T03:36:10.504Z,69.67
2018-08-07T03:37:10.490Z,69.38
2018-08-07T03:38:10.473Z,68.51
2018-08-07T03:39:10.459Z,68.99
2018-08-07T03:40:10.448Z,69.18
2018-08-07T03:41:10.430Z,69.67
2018-08-07T03:42:10.417Z,67.32
2018-08-07T03:43:10.405Z,68.76
2018-08-07T03:44:10.388Z,69.60
2018-08-07T03:45:10.376Z,71.04
2018-08-07T03:46:10.370Z,71.23
2018-08-07T03:47:10.348Z,72.19
2018-08-07T03:48:10.334Z,72.44
2018-08-07T03:49:10.388Z,72.86
2018-08-07T03:50:10.306Z,72.86
2018-08-07T03:51:10.301Z,72.96
2018-08-07T03:52:10.279Z,72.48
2018-08-07T03:53:10.341Z,72.38
2018-08-07T03:54:10.250Z,72.38
2018-08-07T03:55:10.240Z,72.03
2018-08-07T03:56:10.226Z,72.13
2018-08-07T03:57:10.210Z,70.59
2018-08-07T03:58:10.196Z,71.08
2018-08-07T03:59:10.291Z,70.68
2018-08-07T04:00:10.167Z,70.50
2018-08-07T04:01:10.152Z,70.98
2018-08-07T04:02:10.144Z,70.62
2018-08-07T04:03:10.125Z,70.53
2018-08-07T04:04:10.113Z,70.24
2018-08-07T04:05:10.099Z,69.28
2018-08-07T04:06:10.082Z,69.09
2018-08-07T04:07:10.070Z,68.41
2018-08-07T04:08:10.056Z,68.99
2018-08-07T04:09:10.041Z,68.51
2018-08-07T04:10:10.032Z,68.70
2018-08-07T04:11:10.018Z,68.22
2018-08-07T04:12:09.998Z,68.80
2018-08-07T04:13:09.984Z,69.76
2018-08-07T04:14:09.974Z,68.51
2018-08-07T04:15:09.957Z,69.76
2018-08-07T04:16:09.942Z,70.43
2018-08-07T04:17:09.938Z,69.76
2018-08-07T04:18:09.925Z,69.53
2018-08-07T04:19:09.906Z,67.86
2018-08-07T04:20:09.888Z,68.54
2018-08-07T04:21:09.877Z,68.83
2018-08-07T04:22:09.858Z,70.27
2018-08-07T04:23:09.854Z,71.33
2018-08-07T04:24:09.832Z,71.81
2018-08-07T04:25:09.818Z,72.77
2018-08-07T04:26:09.817Z,72.29
2018-08-07T04:27:09.791Z,72.42
2018-08-07T04:28:09.785Z,72.38
2018-08-07T04:29:09.761Z,72.00
2018-08-07T04:30:09.746Z,72.19
2018-08-07T04:31:09.735Z,72.38
2018-08-07T04:32:09.720Z,73.06
2018-08-07T04:33:09.706Z,72.58
2018-08-07T04:34:09.688Z,70.72
2018-08-07T04:35:09.676Z,71.39
2018-08-07T04:36:09.663Z,72.25
2018-08-07T04:37:09.655Z,72.54
2018-08-07T04:38:09.633Z,73.11
2018-08-07T04:39:09.628Z,73.31
2018-08-07T04:40:09.610Z,73.50
2018-08-07T04:41:09.590Z,73.11
2018-08-07T04:42:09.580Z,74.17
2018-08-07T04:43:09.562Z,73.54
2018-08-07T04:44:09.549Z,74.50
2018-08-07T04:45:09.534Z,73.54
2018-08-07T04:46:09.523Z,73.44
2018-08-07T04:47:09.514Z,73.44
2018-08-07T04:48:09.492Z,72.86
2018-08-07T04:49:09.478Z,73.44
2018-08-07T04:50:09.467Z,72.86
2018-08-07T04:51:09.448Z,72.96
2018-08-07T04:52:09.433Z,72.61
2018-08-07T04:53:09.419Z,72.13
2018-08-07T04:54:09.408Z,72.23
2018-08-07T04:55:09.394Z,72.13
2018-08-07T04:56:09.377Z,71.84
2018-08-07T04:57:09.370Z,72.03
2018-08-07T04:58:09.496Z,72.03
2018-08-07T04:59:09.333Z,72.03
2018-08-07T05:00:09.321Z,72.42
2018-08-07T05:01:09.305Z,72.52
2018-08-07T05:02:09.291Z,72.03
2018-08-07T05:03:09.277Z,72.13
2018-08-07T05:04:09.267Z,71.46
2018-08-07T05:05:09.248Z,71.94
2018-08-07T05:06:09.235Z,72.13
2018-08-07T05:07:09.224Z,72.23
2018-08-07T05:08:09.207Z,72.13
2018-08-07T05:09:09.206Z,72.03
2018-08-07T05:10:09.180Z,72.45
2018-08-07T05:11:09.167Z,72.84
2018-08-07T05:12:09.153Z,71.49
2018-08-07T05:13:09.135Z,70.82
2018-08-07T05:14:09.136Z,70.72
2018-08-07T05:15:09.107Z,72.17
2018-08-07T05:16:09.092Z,72.26
2018-08-07T05:17:09.078Z,73.03
2018-08-07T05:18:09.063Z,72.07
2018-08-07T05:19:09.050Z,71.11
2018-08-07T05:20:09.036Z,70.56
2018-08-07T05:21:09.021Z,71.01
2018-08-07T05:22:09.016Z,70.62
2018-08-07T05:23:08.992Z,70.95
2018-08-07T05:24:08.978Z,71.04
2018-08-07T05:25:08.962Z,71.04
2018-08-07T05:26:08.949Z,71.04
2018-08-07T05:27:08.936Z,71.04
2018-08-07T05:28:08.920Z,71.34
2018-08-07T05:29:08.917Z,70.86
2018-08-07T05:30:08.915Z,70.18
2018-08-07T05:31:08.879Z,71.04
2018-08-07T05:32:08.866Z,69.70
2018-08-07T05:33:08.853Z,69.02
2018-08-07T05:34:08.835Z,69.02
2018-08-07T05:35:08.822Z,69.89
2018-08-07T05:36:08.814Z,68.77
2018-08-07T05:37:08.794Z,69.15
2018-08-07T05:38:08.782Z,69.73
2018-08-07T05:39:08.767Z,68.68
2018-08-07T05:40:08.762Z,69.73
2018-08-07T05:41:08.750Z,69.93
2018-08-07T05:42:08.728Z,69.64
2018-08-07T05:43:08.733Z,70.79
2018-08-07T05:44:08.696Z,69.93
2018-08-07T05:45:08.685Z,70.06
2018-08-07T05:46:08.669Z,69.96
2018-08-07T05:47:08.657Z,69.77
2018-08-07T05:48:08.644Z,68.90
2018-08-07T05:49:08.626Z,68.32
2018-08-07T05:50:08.672Z,68.52
2018-08-07T05:51:09.018Z,67.94
2018-08-07T05:52:08.585Z,68.52
2018-08-07T05:53:08.572Z,68.80
2018-08-07T05:54:08.558Z,68.04
2018-08-07T05:55:08.580Z,68.13
2018-08-07T05:56:08.535Z,67.94
2018-08-07T05:57:08.521Z,67.65
2018-08-07T05:58:08.503Z,67.49
2018-08-07T05:59:08.489Z,66.33
2018-08-07T06:00:08.476Z,65.17
2018-08-07T06:01:08.464Z,65.47
2018-08-07T06:02:08.447Z,64.31
2018-08-07T06:03:08.435Z,65.17
2018-08-07T06:04:08.423Z,64.69
2018-08-07T06:05:08.407Z,64.02
2018-08-07T06:06:08.397Z,63.57
2018-08-07T06:07:08.387Z,63.06
2018-08-07T06:08:08.365Z,63.18
2018-08-07T06:09:08.354Z,62.99
2018-08-07T06:10:08.343Z,62.89
2018-08-07T06:11:08.329Z,62.70
2018-08-07T06:12:08.313Z,62.51
2018-08-07T06:13:08.298Z,61.93
2018-08-07T06:14:08.289Z,62.41
2018-08-07T06:15:08.271Z,62.12
2018-08-07T06:16:08.261Z,62.02
2018-08-07T06:17:08.246Z,61.86
2018-08-07T06:18:08.230Z,61.86
2018-08-07T06:19:08.237Z,61.77
2018-08-07T06:20:08.204Z,62.25
2018-08-07T06:21:08.190Z,61.67
2018-08-07T06:22:08.177Z,62.34
2018-08-07T06:23:08.166Z,61.67
2018-08-07T06:24:08.154Z,60.99
2018-08-07T06:25:08.140Z,60.31
2018-08-07T06:26:08.126Z,59.86
2018-08-07T06:27:08.111Z,59.28
2018-08-07T06:28:08.107Z,59.58
2018-08-07T06:29:08.082Z,60.35
2018-08-07T06:30:08.070Z,60.44
2018-08-07T06:31:08.055Z,59.96
2018-08-07T06:32:08.044Z,59.86
2018-08-07T06:33:08.031Z,59.86
2018-08-07T06:34:08.019Z,59.86
2018-08-07T06:35:08.002Z,59.67
2018-08-07T06:36:07.994Z,58.90
2018-08-07T06:37:07.979Z,59.22
2018-08-07T06:38:07.968Z,58.54
2018-08-07T06:39:07.955Z,58.06
2018-08-07T06:40:07.941Z,58.06
2018-08-07T06:41:07.925Z,59.12
2018-08-07T06:42:07.913Z,58.83
2018-08-07T06:43:07.900Z,59.63
2018-08-07T06:44:07.885Z,59.70
2018-08-07T06:45:07.875Z,59.34
2018-08-07T06:46:07.859Z,59.15
2018-08-07T06:47:07.846Z,57.60
2018-08-07T06:48:07.881Z,57.31
2018-08-07T06:49:07.819Z,57.89
2018-08-07T06:50:07.818Z,56.95
2018-08-07T06:51:07.797Z,56.86
2018-08-07T06:52:07.782Z,57.82
2018-08-07T06:53:07.768Z,56.86
2018-08-07T06:54:07.761Z,56.09
2018-08-07T06:55:07.741Z,56.18
2018-08-07T06:56:07.728Z,56.28
2018-08-07T06:57:07.721Z,56.37
2018-08-07T06:58:07.704Z,56.76
2018-08-07T06:59:07.689Z,56.09
2018-08-07T07:00:07.681Z,56.11
2018-08-07T07:01:07.662Z,55.99
2018-08-07T07:02:07.652Z,56.79
2018-08-07T07:03:07.636Z,56.11
2018-08-07T07:04:07.625Z,56.11
2018-08-07T07:05:07.615Z,55.73
2018-08-07T07:06:07.604Z,55.73
2018-08-07T07:07:07.590Z,55.73
2018-08-07T07:08:07.575Z,54.85
2018-08-07T07:09:07.565Z,55.24
2018-08-07T07:10:07.551Z,54.59
2018-08-07T07:11:07.536Z,54.69
2018-08-07T07:12:07.522Z,54.59
2018-08-07T07:13:07.511Z,54.69
2018-08-07T07:14:07.497Z,54.69
2018-08-07T07:15:07.484Z,54.21
2018-08-07T07:16:07.475Z,54.71
2018-08-07T07:17:07.460Z,54.21
2018-08-07T07:18:07.449Z,53.75
2018-08-07T07:19:07.433Z,52.87
2018-08-07T07:20:07.431Z,52.58
2018-08-07T07:21:07.414Z,52.39
2018-08-07T07:22:07.397Z,51.72
2018-08-07T07:23:07.387Z,52.22
2018-08-07T07:24:07.372Z,52.80
2018-08-07T07:25:07.357Z,52.42
2018-08-07T07:26:07.346Z,51.84
2018-08-07T07:27:07.334Z,52.32
2018-08-07T07:28:07.321Z,51.74
2018-08-07T07:29:07.315Z,51.84
2018-08-07T07:30:07.299Z,51.06
2018-08-07T07:31:07.283Z,51.18
2018-08-07T07:32:07.276Z,51.09
2018-08-07T07:33:07.257Z,51.18
2018-08-07T07:34:07.259Z,51.67
2018-08-07T07:35:07.237Z,51.47
2018-08-07T07:36:07.229Z,51.28
2018-08-07T07:37:07.211Z,50.70
2018-08-07T07:38:07.199Z,51.18
2018-08-07T07:39:07.190Z,50.60
2018-08-07T07:40:07.174Z,50.82
2018-08-07T07:41:07.166Z,50.72
2018-08-07T07:42:07.154Z,51.01
2018-08-07T07:43:07.138Z,50.92
2018-08-07T07:44:07.127Z,51.11
2018-08-07T07:45:07.112Z,51.40
2018-08-07T07:46:07.120Z,49.97
2018-08-07T07:47:07.190Z,49.77
2018-08-07T07:48:07.087Z,49.97
2018-08-07T07:49:07.063Z,49.29
2018-08-07T07:50:07.050Z,50.07
2018-08-07T07:51:07.039Z,49.97
2018-08-07T07:52:07.028Z,49.87
2018-08-07T07:53:07.014Z,49.51
2018-08-07T07:54:07.065Z,49.32
2018-08-07T07:55:06.992Z,49.12
2018-08-07T07:56:06.980Z,48.83
2018-08-07T07:57:06.968Z,49.34
2018-08-07T07:58:06.956Z,49.34
2018-08-07T07:59:06.950Z,48.93
2018-08-07T08:00:06.935Z,48.47
2018-08-07T08:01:06.922Z,49.44
2018-08-07T08:02:06.908Z,48.95
2018-08-07T08:03:06.899Z,48.20
2018-08-07T08:04:06.887Z,48.58
2018-08-07T08:05:06.922Z,48.68
2018-08-07T08:06:06.932Z,47.91
2018-08-07T08:07:06.855Z,48.00
2018-08-07T08:08:06.843Z,48.49
2018-08-07T08:09:06.837Z,48.30
2018-08-07T08:10:06.820Z,47.61
2018-08-07T08:11:06.832Z,47.15
2018-08-07T08:12:06.800Z,47.64
2018-08-07T08:13:06.784Z,47.15
2018-08-07T08:14:06.775Z,47.54
2018-08-07T08:15:06.764Z,47.56
2018-08-07T08:16:06.757Z,47.27
2018-08-07T08:17:06.740Z,46.11
2018-08-07T08:18:06.731Z,45.62
2018-08-07T08:19:06.720Z,45.62
2018-08-07T08:20:06.712Z,45.72
2018-08-07T08:21:06.697Z,45.74
2018-08-07T08:22:06.694Z,46.51
2018-08-07T08:23:06.674Z,46.13
2018-08-07T08:24:06.665Z,45.45
2018-08-07T08:25:06.653Z,45.54
2018-08-07T08:26:06.644Z,45.74
2018-08-07T08:27:06.631Z,45.54
2018-08-07T08:28:06.626Z,44.69
2018-08-07T08:29:06.653Z,44.30
2018-08-07T08:30:06.735Z,44.49
2018-08-07T08:31:06.594Z,44.49
2018-08-07T08:32:06.578Z,45.67
2018-08-07T08:33:06.579Z,45.67
2018-08-07T08:34:06.556Z,44.40
2018-08-07T08:35:06.613Z,45.08
2018-08-07T08:36:06.536Z,44.79
2018-08-07T08:37:06.525Z,43.54
2018-08-07T08:38:06.514Z,43.64
2018-08-07T08:39:06.503Z,43.15
2018-08-07T08:40:06.493Z,42.96
2018-08-07T08:41:06.492Z,42.69
2018-08-07T08:42:06.480Z,42.20
2018-08-07T08:43:06.471Z,43.18
2018-08-07T08:44:06.451Z,42.69
2018-08-07T08:45:06.440Z,42.59
2018-08-07T08:46:06.430Z,42.79
2018-08-07T08:47:06.420Z,42.00
2018-08-07T08:48:06.412Z,42.61
2018-08-07T08:49:06.401Z,42.22
2018-08-07T08:50:06.398Z,42.61
2018-08-07T08:51:06.385Z,43.10
2018-08-07T08:52:06.371Z,42.51
2018-08-07T08:53:06.370Z,42.61
2018-08-07T08:54:06.377Z,42.83
2018-08-07T08:55:06.345Z,40.47
2018-08-07T08:56:06.331Z,41.66
2018-08-07T08:57:06.323Z,42.24
2018-08-07T08:58:06.309Z,41.07
2018-08-07T08:59:06.303Z,40.58
2018-08-07T09:00:06.292Z,40.29
2018-08-07T09:01:06.281Z,40.80
2018-08-07T09:02:06.270Z,40.21
2018-08-07T09:03:06.260Z,39.53
2018-08-07T09:04:06.252Z,40.21
2018-08-07T09:05:06.246Z,39.14
2018-08-07T09:06:06.233Z,40.70
2018-08-07T09:07:06.221Z,40.60
2018-08-07T09:08:06.228Z,39.23
2018-08-07T09:09:06.200Z,39.23
2018-08-07T09:10:06.193Z,39.62
2018-08-07T09:11:06.184Z,39.43
2018-08-07T09:12:06.178Z,39.43
2018-08-07T09:13:06.163Z,39.43
2018-08-07T09:14:06.152Z,38.87
2018-08-07T09:15:06.144Z,39.06
2018-08-07T09:16:06.139Z,38.96
2018-08-07T09:17:06.130Z,39.36
2018-08-07T09:18:06.139Z,39.16
2018-08-07T09:19:06.106Z,37.99
2018-08-07T09:20:06.101Z,38.59
2018-08-07T09:21:06.091Z,38.40
2018-08-07T09:22:06.084Z,38.79
2018-08-07T09:23:06.077Z,37.71
2018-08-07T09:24:06.062Z,38.30
2018-08-07T09:25:06.055Z,37.81
2018-08-07T09:26:06.094Z,38.59
2018-08-07T09:27:06.032Z,38.20
2018-08-07T09:28:06.023Z,37.83
2018-08-07T09:29:06.047Z,37.73
2018-08-07T09:30:06.010Z,37.34
2018-08-07T09:31:06.001Z,37.63
2018-08-07T09:32:05.989Z,37.34
2018-08-07T09:33:06.086Z,37.14
2018-08-07T09:34:05.975Z,37.35
2018-08-07T09:35:05.961Z,37.16
2018-08-07T09:36:05.949Z,36.57
2018-08-07T09:37:05.939Z,37.45
2018-08-07T09:38:05.940Z,36.16
2018-08-07T09:39:05.920Z,36.26
2018-08-07T09:40:05.921Z,36.38
2018-08-07T09:41:05.904Z,35.97
2018-08-07T09:42:05.905Z,35.79
2018-08-07T09:43:05.885Z,36.38
2018-08-07T09:44:05.877Z,36.98
2018-08-07T09:45:05.868Z,37.67
2018-08-07T09:46:05.875Z,36.10
2018-08-07T09:47:05.849Z,36.40
2018-08-07T09:48:05.845Z,36.32
2018-08-07T09:49:05.835Z,36.22
2018-08-07T09:50:05.821Z,36.32
2018-08-07T09:51:05.815Z,35.14
2018-08-07T09:52:05.815Z,35.24
2018-08-07T09:53:05.805Z,36.32
2018-08-07T09:54:05.788Z,34.96
2018-08-07T09:55:05.782Z,34.57
2018-08-07T09:56:05.773Z,34.75
2018-08-07T09:57:05.769Z,33.87
2018-08-07T09:58:05.751Z,34.44
2018-08-07T09:59:05.744Z,35.91
2018-08-07T10:00:05.759Z,35.22
2018-08-07T10:01:05.728Z,35.13
2018-08-07T10:02:05.720Z,34.54
2018-08-07T10:03:05.708Z,34.05
2018-08-07T10:04:05.703Z,34.94
2018-08-07T10:05:05.759Z,34.75
2018-08-07T10:06:05.685Z,34.74
2018-08-07T10:07:05.676Z,34.93
2018-08-07T10:08:05.666Z,35.52
2018-08-07T10:09:05.655Z,34.93
2018-08-07T10:10:05.648Z,35.04
2018-08-07T10:11:05.641Z,34.65
2018-08-07T10:12:05.639Z,34.45
2018-08-07T10:13:05.622Z,34.47
2018-08-07T10:14:05.617Z,35.16
2018-08-07T10:15:05.606Z,34.38
2018-08-07T10:16:05.598Z,33.20
2018-08-07T10:17:05.594Z,32.90
2018-08-07T10:18:05.581Z,33.69
2018-08-07T10:19:05.574Z,34.47
2018-08-07T10:20:05.565Z,33.98
2018-08-07T10:21:05.555Z,34.69
2018-08-07T10:22:05.549Z,33.61
2018-08-07T10:23:05.538Z,33.41
2018-08-07T10:24:05.542Z,32.94
2018-08-07T10:25:05.529Z,32.43
2018-08-07T10:26:05.515Z,32.34
2018-08-07T10:27:05.507Z,32.06
2018-08-07T10:28:05.499Z,31.84
2018-08-07T10:29:05.490Z,31.65
2018-08-07T10:30:05.487Z,31.55
2018-08-07T10:31:05.478Z,31.45
2018-08-07T10:32:05.475Z,31.26
2018-08-07T10:33:05.456Z,31.16
2018-08-07T10:34:05.449Z,32.04
2018-08-07T10:35:05.472Z,31.84
2018-08-07T10:36:05.432Z,31.55
2018-08-07T10:37:05.427Z,31.07
2018-08-07T10:38:05.434Z,30.19
2018-08-07T10:39:05.411Z,31.27
2018-08-07T10:40:05.404Z,30.98
2018-08-07T10:41:05.486Z,31.47
2018-08-07T10:42:05.384Z,29.80
2018-08-07T10:43:05.454Z,29.50
2018-08-07T10:44:05.414Z,28.23
2018-08-07T10:45:05.361Z,27.26
2018-08-07T10:46:05.352Z,28.05
2018-08-07T10:47:05.350Z,28.93
2018-08-07T10:48:05.344Z,29.05
2018-08-07T10:49:05.329Z,28.36
2018-08-07T10:50:05.321Z,27.28
2018-08-07T10:51:05.317Z,26.98
2018-08-07T10:52:05.315Z,28.16
2018-08-07T10:53:05.298Z,27.37
2018-08-07T10:54:05.291Z,27.18
2018-08-07T10:55:05.288Z,26.89
2018-08-07T10:56:05.277Z,27.67
2018-08-07T10:57:05.268Z,27.18
2018-08-07T10:58:05.258Z,27.37
2018-08-07T10:59:05.251Z,27.37
2018-08-07T11:00:05.253Z,27.57
2018-08-07T11:01:05.238Z,27.37
2018-08-07T11:02:05.233Z,27.28
2018-08-07T11:03:05.223Z,26.50
2018-08-07T11:04:05.212Z,26.21
2018-08-07T11:05:05.208Z,26.11
2018-08-07T11:06:05.199Z,25.92
2018-08-07T11:07:05.189Z,25.92
2018-08-07T11:08:05.195Z,25.63
2018-08-07T11:09:05.173Z,26.03
2018-08-07T11:10:05.167Z,25.82
2018-08-07T11:11:05.158Z,25.72
2018-08-07T11:12:05.151Z,25.03
2018-08-07T11:13:05.143Z,25.62
2018-08-07T11:14:05.135Z,24.93
2018-08-07T11:15:05.135Z,26.31
2018-08-07T11:16:05.120Z,25.62
2018-08-07T11:17:05.124Z,24.85
2018-08-07T11:18:05.105Z,24.36
2018-08-07T11:19:05.114Z,23.77
2018-08-07T11:20:05.098Z,24.95
2018-08-07T11:21:05.082Z,25.54
2018-08-07T11:22:05.079Z,25.83
2018-08-07T11:23:05.070Z,25.63
2018-08-07T11:24:05.061Z,25.05
2018-08-07T11:25:05.055Z,23.97
2018-08-07T11:26:05.051Z,23.97
2018-08-07T11:27:05.047Z,23.97
2018-08-07T11:28:05.044Z,23.39
2018-08-07T11:29:05.024Z,24.07
2018-08-07T11:30:05.056Z,25.35
2018-08-07T11:31:05.015Z,24.55
2018-08-07T11:32:05.001Z,25.73
2018-08-07T11:33:04.996Z,24.16
2018-08-07T11:34:04.986Z,24.54
2018-08-07T11:35:04.982Z,24.84
2018-08-07T11:36:05.026Z,25.62
2018-08-07T11:37:04.969Z,25.62
2018-08-07T11:38:04.955Z,25.72
2018-08-07T11:39:04.947Z,25.13
2018-08-07T11:40:04.959Z,25.73
2018-08-07T11:41:04.939Z,24.55
2018-08-07T11:42:04.930Z,23.86
2018-08-07T11:43:04.922Z,24.26
2018-08-07T11:44:04.915Z,23.88
2018-08-07T11:45:04.909Z,23.58
2018-08-07T11:46:04.905Z,23.99
2018-08-07T11:47:04.893Z,23.30
2018-08-07T11:48:05.004Z,23.30
2018-08-07T11:49:04.877Z,23.99
2018-08-07T11:50:04.871Z,23.51
2018-08-07T11:51:04.863Z,23.11
2018-08-07T11:52:04.854Z,23.02
2018-08-07T11:53:04.848Z,23.11
2018-08-07T11:54:04.842Z,23.20
2018-08-07T11:55:04.835Z,22.62
2018-08-07T11:56:04.826Z,22.22
2018-08-07T11:57:04.819Z,22.52
2018-08-07T11:58:04.817Z,23.40
2018-08-07T11:59:04.804Z,24.18
2018-08-07T12:00:04.798Z,23.30
2018-08-07T12:01:04.801Z,23.40
2018-08-07T12:02:04.784Z,22.41
2018-08-07T12:03:04.780Z,22.91
2018-08-07T12:04:04.773Z,23.10
2018-08-07T12:05:04.762Z,21.73
2018-08-07T12:06:04.757Z,25.08
2018-08-07T12:07:04.749Z,23.00
2018-08-07T12:08:04.778Z,22.61
2018-08-07T12:09:04.734Z,22.52
2018-08-07T12:10:04.725Z,23.40
2018-08-07T12:11:04.719Z,23.40
2018-08-07T12:12:04.716Z,22.91
2018-08-07T12:13:04.705Z,22.71
2018-08-07T12:14:04.697Z,23.21
2018-08-07T12:15:04.691Z,22.52
2018-08-07T12:16:04.684Z,22.62
2018-08-07T12:17:04.678Z,22.03
2018-08-07T12:18:04.669Z,21.25
2018-08-07T12:19:04.660Z,20.95
2018-08-07T12:20:04.653Z,21.53
2018-08-07T12:21:04.644Z,22.02
2018-08-07T12:22:04.638Z,22.31
2018-08-07T12:23:04.633Z,23.79
2018-08-07T12:24:04.624Z,24.29
2018-08-07T12:25:04.633Z,24.49
2018-08-07T12:26:04.611Z,22.33
2018-08-07T12:27:04.614Z,22.72
2018-08-07T12:28:04.597Z,22.52
2018-08-07T12:29:04.595Z,21.75
2018-08-07T12:30:04.583Z,22.34
2018-08-07T12:31:04.573Z,22.34
2018-08-07T12:32:04.571Z,21.75
2018-08-07T12:33:04.559Z,21.55
2018-08-07T12:34:04.556Z,22.05
2018-08-07T12:35:04.588Z,23.03
2018-08-07T12:36:04.548Z,22.34
2018-08-07T12:37:04.533Z,21.26
2018-08-07T12:38:04.525Z,21.84
2018-08-07T12:39:04.532Z,21.94
2018-08-07T12:40:04.511Z,21.84
2018-08-07T12:41:04.523Z,22.05
2018-08-07T12:42:04.498Z,22.42
2018-08-07T12:43:04.490Z,22.52
2018-08-07T12:44:04.530Z,23.31
2018-08-07T12:45:04.479Z,23.22
2018-08-07T12:46:04.470Z,22.63
2018-08-07T12:47:04.462Z,22.73
2018-08-07T12:48:04.457Z,22.34
2018-08-07T12:49:04.455Z,22.05
2018-08-07T12:50:04.447Z,20.86
2018-08-07T12:51:04.436Z,21.65
2018-08-07T12:52:04.431Z,21.45